createdAt,value
2023-03-17T00:03:43.890Z,9
2023-03-17T00:05:45.596Z,9
2023-03-17T00:09:52.284Z,8.9
2023-03-17T00:11:53.983Z,8.9
2023-03-17T00:13:55.726Z,8.9
2023-03-17T00:15:57.616Z,8.8
2023-03-17T00:24:07.559Z,8.9
2023-03-17T00:28:10.988Z,8.8
2023-03-17T00:31:15.232Z,8.9
2023-03-17T00:37:23.594Z,8.7
2023-03-17T00:39:25.367Z,8.7
2023-03-17T00:41:27.051Z,8.8
2023-03-17T00:43:30.575Z,8.7
2023-03-17T00:45:30.471Z,8.6
2023-03-17T00:47:32.193Z,8.7
2023-03-17T00:49:33.944Z,8.6
2023-03-17T00:57:43.989Z,8.6
2023-03-17T00:59:45.686Z,8.6
2023-03-17T01:01:47.462Z,8.6
2023-03-17T01:03:49.112Z,8.6
2023-03-17T01:05:54.073Z,8.7
2023-03-17T01:07:55.785Z,8.7
2023-03-17T01:09:57.490Z,8.6
2023-03-17T01:11:59.188Z,8.6
2023-03-17T01:14:00.932Z,8.6
2023-03-17T01:16:02.652Z,8.7
2023-03-17T01:18:04.343Z,8.6
2023-03-17T01:20:09.297Z,8.6
2023-03-17T01:22:11.017Z,8.5
2023-03-17T01:24:12.754Z,8.6
2023-03-17T01:26:41.319Z,8.5
2023-03-17T01:28:43.030Z,8.6
2023-03-17T01:30:44.737Z,8.6
2023-03-17T01:32:49.752Z,8.6
2023-03-17T01:34:51.408Z,8.6
2023-03-17T01:36:53.134Z,8.5
2023-03-17T01:38:54.821Z,8.6
2023-03-17T01:40:56.549Z,8.5
2023-03-17T01:42:58.253Z,8.5
2023-03-17T01:44:59.960Z,8.5
2023-03-17T01:47:04.907Z,8.4
2023-03-17T01:49:06.649Z,8.4
2023-03-17T01:51:08.300Z,8.5
2023-03-17T01:53:10.021Z,8.5
2023-03-17T01:55:11.739Z,8.5
2023-03-17T01:57:13.568Z,8.3
2023-03-17T01:59:15.142Z,8.4
2023-03-17T02:01:20.108Z,8.3
2023-03-17T02:03:21.769Z,8.4
2023-03-17T02:05:24.518Z,8.4
2023-03-17T02:07:25.238Z,8.3
2023-03-17T02:09:26.967Z,8.3
2023-03-17T02:11:28.699Z,8.3
2023-03-17T02:13:30.393Z,8.2
2023-03-17T02:15:35.427Z,8.2
2023-03-17T02:20:41.221Z,8.2
2023-03-17T02:22:42.939Z,8.2
2023-03-17T02:24:44.637Z,8.2
2023-03-17T02:26:46.340Z,8.2
2023-03-17T02:28:51.291Z,8.2
2023-03-17T02:30:53.019Z,8.3
2023-03-17T02:32:54.729Z,8.2
2023-03-17T02:34:56.400Z,8
2023-03-17T02:36:58.200Z,8.1
2023-03-17T02:38:59.808Z,8.1
2023-03-17T02:41:01.520Z,8.2
2023-03-17T02:43:06.430Z,8.2
2023-03-17T02:45:08.144Z,8.3
2023-03-17T02:47:09.840Z,8.1
2023-03-17T02:49:11.530Z,8.2
2023-03-17T02:51:13.233Z,8.2
2023-03-17T02:53:14.924Z,8.3
2023-03-17T02:55:16.625Z,8.2
2023-03-17T02:57:21.619Z,8.2
2023-03-17T03:01:25.062Z,8.3
2023-03-17T03:03:26.678Z,8.2
2023-03-17T03:05:28.358Z,8.2
2023-03-17T03:07:30.097Z,8.2
2023-03-17T03:11:36.708Z,8.2
2023-03-17T03:13:38.423Z,8.1
2023-03-17T03:15:40.151Z,8.2
2023-03-17T03:16:42.611Z,8.2
2023-03-17T03:18:44.306Z,8.2
2023-03-17T03:20:46.016Z,8.3
2023-03-17T03:24:52.647Z,8.2
2023-03-17T03:26:54.362Z,8.2
2023-03-17T03:28:56.044Z,8.3
2023-03-17T03:30:57.822Z,8.2
2023-03-17T03:32:59.541Z,8.3
2023-03-17T03:35:01.181Z,8.2
2023-03-17T03:37:02.916Z,8.4
2023-03-17T03:39:07.827Z,8.2
2023-03-17T03:41:09.514Z,8.2
2023-03-17T03:47:14.642Z,8.2
2023-03-17T03:51:18.036Z,8.2
2023-03-17T03:53:24.534Z,8.3
2023-03-17T03:55:26.232Z,8.4
2023-03-17T03:57:27.905Z,8.3
2023-03-17T04:05:34.752Z,8.4
2023-03-17T04:07:39.712Z,8.4
2023-03-17T04:09:41.432Z,8.5
2023-03-17T04:11:43.124Z,8.5
2023-03-17T04:12:45.579Z,8.6
2023-03-17T04:14:47.284Z,8.4
2023-03-17T04:16:49.020Z,8.4
2023-03-17T04:18:50.773Z,8.4
2023-03-17T04:20:55.645Z,8.5
2023-03-17T04:22:57.385Z,8.4
2023-03-17T04:24:59.079Z,8.5
2023-03-17T04:27:00.791Z,8.6
2023-03-17T04:29:02.529Z,8.5
2023-03-17T04:31:04.222Z,8.4
2023-03-17T04:33:06.052Z,8.6
2023-03-17T04:37:12.591Z,8.5
2023-03-17T04:39:14.294Z,8.5
2023-03-17T04:41:16.036Z,8.4
2023-03-17T04:43:17.771Z,8.4
2023-03-17T04:45:19.474Z,8.5
2023-03-17T04:47:21.215Z,8.4
2023-03-17T04:49:26.121Z,8.5
2023-03-17T04:51:27.855Z,8.6
2023-03-17T04:53:29.553Z,8.7
2023-03-17T04:55:31.249Z,8.6
2023-03-17T04:57:32.962Z,8.8
2023-03-17T04:59:34.677Z,8.6
2023-03-17T05:01:39.014Z,8.7
2023-03-17T05:03:41.354Z,8.8
2023-03-17T05:05:43.052Z,8.8
2023-03-17T05:07:44.767Z,8.8
2023-03-17T05:12:15.101Z,8.7
2023-03-17T05:14:16.809Z,8.7
2023-03-17T05:16:21.762Z,8.8
2023-03-17T05:24:28.620Z,8.7
2023-03-17T05:26:30.337Z,8.5
2023-03-17T05:32:38.756Z,8.6
2023-03-17T05:34:40.436Z,8.8
2023-03-17T05:36:42.153Z,8.7
2023-03-17T05:38:43.861Z,8.7
2023-03-17T05:40:45.665Z,8.5
2023-03-17T05:44:52.236Z,8.5
2023-03-17T05:46:53.935Z,8.5
2023-03-17T05:52:59.046Z,8.4
2023-03-17T05:55:00.783Z,8.4
2023-03-17T05:57:02.519Z,8.5
2023-03-17T06:01:09.127Z,8.5
2023-03-17T06:03:10.905Z,8.5
2023-03-17T06:04:13.334Z,8.5
2023-03-17T06:10:18.455Z,8.6
2023-03-17T06:12:23.380Z,8.5
2023-03-17T06:16:26.848Z,8.7
2023-03-17T06:24:33.687Z,8.7
2023-03-17T06:26:38.629Z,8.5
2023-03-17T06:28:40.312Z,8.5
2023-03-17T06:30:42.038Z,8.5
2023-03-17T06:36:47.190Z,8.7
2023-03-17T06:38:48.896Z,8.6
2023-03-17T06:40:53.821Z,8.7
2023-03-17T06:42:55.573Z,8.6
2023-03-17T06:44:57.261Z,8.6
2023-03-17T06:46:59.501Z,8.6
2023-03-17T06:49:00.685Z,8.6
2023-03-17T06:51:02.391Z,8.5
2023-03-17T06:53:04.102Z,8.6
2023-03-17T06:55:09.031Z,8.6
2023-03-17T06:57:10.809Z,8.6
2023-03-17T06:59:12.456Z,8.7
2023-03-17T07:00:14.943Z,8.7
2023-03-17T07:02:17.414Z,8.7
2023-03-17T07:04:18.382Z,8.8
2023-03-17T07:06:20.098Z,8.8
2023-03-17T07:08:25.016Z,8.8
2023-03-17T07:12:28.458Z,8.9
2023-03-17T07:14:30.188Z,8.9
2023-03-17T07:16:31.955Z,9
2023-03-17T07:18:33.628Z,9.1
2023-03-17T07:20:35.329Z,9.1
2023-03-17T07:22:40.338Z,9.2
2023-03-17T07:24:41.996Z,9.1
2023-03-17T07:32:49.017Z,9.9
2023-03-17T07:34:50.615Z,10.1
2023-03-17T07:36:55.560Z,10.4
2023-03-17T07:38:57.333Z,10.6
2023-03-17T07:40:59.088Z,10.7
2023-03-17T07:43:00.831Z,10.6
2023-03-17T07:45:02.534Z,10.8
2023-03-17T07:47:04.243Z,10.7
2023-03-17T07:49:06.120Z,10.7
2023-03-17T07:51:10.973Z,11
2023-03-17T07:53:12.857Z,11.2
2023-03-17T07:55:14.454Z,11.4
2023-03-17T07:58:18.988Z,11.6
2023-03-17T08:00:20.451Z,12
2023-03-17T08:02:22.253Z,12.3
2023-03-17T08:04:27.201Z,12.5
2023-03-17T08:06:28.954Z,12.8
2023-03-17T08:08:30.716Z,12.9
2023-03-17T08:10:32.864Z,13.1
2023-03-17T08:12:34.261Z,13.4
2023-03-17T08:20:44.627Z,14.9
2023-03-17T08:24:48.173Z,16.7
2023-03-17T08:26:49.955Z,16.9
2023-03-17T08:32:58.723Z,17.8
2023-03-17T08:43:07.671Z,19.2
2023-03-17T08:45:09.469Z,19.6
2023-03-17T08:47:14.549Z,19
2023-03-17T08:49:16.438Z,18.9
2023-03-17T08:51:19.069Z,19.4
2023-03-17T08:53:46.821Z,20
2023-03-17T08:55:48.620Z,20
2023-03-17T08:57:50.433Z,20.3
2023-03-17T08:59:55.561Z,19.6
2023-03-17T09:01:57.330Z,19.8
2023-03-17T09:03:59.160Z,20.5
2023-03-17T09:06:00.975Z,20.2
2023-03-17T09:10:04.500Z,21.3
2023-03-17T09:12:06.450Z,21.2
2023-03-17T09:14:11.289Z,21.1
2023-03-17T09:16:13.228Z,21
2023-03-17T09:18:14.802Z,20.2
2023-03-17T09:20:16.641Z,20.2
2023-03-17T09:22:18.307Z,20.4
2023-03-17T09:24:20.062Z,19.7
2023-03-17T09:26:21.734Z,20.3
2023-03-17T09:28:26.598Z,20.6
2023-03-17T09:30:28.462Z,20.8
2023-03-17T09:32:30.275Z,20.8
2023-03-17T09:34:32.061Z,20.3
2023-03-17T09:36:33.859Z,20
2023-03-17T09:38:35.584Z,20.2
2023-03-17T09:42:42.285Z,19.5
2023-03-17T09:44:45.630Z,19.6
2023-03-17T09:46:47.488Z,20.1
2023-03-17T09:47:49.919Z,19.6
2023-03-17T09:49:51.665Z,19.1
2023-03-17T10:00:03.697Z,20.3
2023-03-17T10:02:05.618Z,19.2
2023-03-17T10:04:07.218Z,18.3
2023-03-17T10:06:09.704Z,17.5
2023-03-17T10:08:23.061Z,17.3
2023-03-17T10:10:15.496Z,17.5
2023-03-17T10:12:17.341Z,17.3
2023-03-17T10:14:19.165Z,17.3
2023-03-17T10:16:21.042Z,17.5
2023-03-17T10:18:22.692Z,17.6
2023-03-17T10:20:24.401Z,17.8
2023-03-17T10:32:38.581Z,17.4
2023-03-17T10:34:40.304Z,18.5
2023-03-17T10:36:42.042Z,20
2023-03-17T10:38:47.110Z,20.4
2023-03-17T10:40:48.930Z,20
2023-03-17T10:42:50.632Z,19
2023-03-17T10:43:53.159Z,18.2
2023-03-17T10:49:58.305Z,18
2023-03-17T10:52:03.371Z,18.9
2023-03-17T10:54:05.237Z,18.9
2023-03-17T10:56:06.921Z,18.7
2023-03-17T10:58:08.719Z,18.2
2023-03-17T11:00:10.547Z,18
2023-03-17T11:02:12.372Z,17.8
2023-03-17T11:04:14.151Z,18.3
2023-03-17T11:06:19.002Z,18.9
2023-03-17T11:08:20.669Z,19
2023-03-17T11:10:22.505Z,18.8
2023-03-17T11:12:24.210Z,18.6
2023-03-17T11:14:25.914Z,18.3
2023-03-17T11:16:27.720Z,18.8
2023-03-17T11:18:30.593Z,19
2023-03-17T11:20:34.248Z,20.6
2023-03-17T11:22:35.964Z,21
2023-03-17T11:24:37.759Z,21.1
2023-03-17T11:26:39.484Z,20.2
2023-03-17T11:28:41.203Z,19
2023-03-17T11:30:42.909Z,18.4
2023-03-17T11:32:44.681Z,18.2
2023-03-17T11:34:49.491Z,18.2
2023-03-17T11:36:51.202Z,18.2
2023-03-17T11:39:55.343Z,17.9
2023-03-17T11:41:57.159Z,17.7
2023-03-17T11:43:58.969Z,17.9
2023-03-17T11:46:00.832Z,17.8
2023-03-17T11:48:05.688Z,18
2023-03-17T11:50:07.400Z,18.3
2023-03-17T11:52:09.093Z,18.4
2023-03-17T11:54:10.835Z,18.2
2023-03-17T11:56:12.519Z,17.9
2023-03-17T11:58:14.236Z,18
2023-03-17T12:00:16.029Z,18.3
2023-03-17T12:02:20.820Z,18.6
2023-03-17T12:04:23.027Z,19.6
2023-03-17T12:06:24.256Z,20.8
2023-03-17T12:08:26.046Z,21.5
2023-03-17T12:10:27.779Z,21.4
2023-03-17T12:12:29.599Z,21.9
2023-03-17T12:14:31.357Z,22.8
2023-03-17T12:16:36.179Z,21.8
2023-03-17T12:18:37.881Z,21.5
2023-03-17T12:20:39.605Z,20.7
2023-03-17T12:22:41.323Z,19.8
2023-03-17T12:24:43.254Z,19.4
2023-03-17T12:26:44.822Z,20.3
2023-03-17T12:28:46.539Z,21.2
2023-03-17T12:30:51.436Z,21.6
2023-03-17T12:37:23.231Z,21.6
2023-03-17T12:39:24.942Z,21.8
2023-03-17T12:41:26.640Z,21.3
2023-03-17T12:43:31.536Z,22.4
2023-03-17T12:45:33.376Z,22.8
2023-03-17T12:47:34.982Z,22.9
2023-03-17T12:49:36.641Z,22.3
2023-03-17T13:20:09.385Z,19.3
2023-03-17T13:22:11.074Z,19.4
2023-03-17T13:30:21.069Z,18.7
2023-03-17T13:31:23.551Z,18.8
2023-03-17T13:33:25.222Z,18.5
2023-03-17T13:35:26.942Z,18.4
2023-03-17T13:37:28.668Z,18.6
2023-03-17T13:39:33.508Z,18.8
2023-03-17T13:41:35.245Z,18.9
2023-03-17T13:45:38.717Z,18.9
2023-03-17T13:47:40.369Z,18.7
2023-03-17T13:51:49.495Z,19
2023-03-17T13:53:48.659Z,19
2023-03-17T13:55:50.433Z,19
2023-03-17T13:57:52.108Z,18.8
2023-03-17T13:59:53.786Z,18.7
2023-03-17T14:01:55.518Z,18.8
2023-03-17T14:03:57.288Z,18.9
2023-03-17T14:05:58.931Z,18.6
2023-03-17T14:08:03.821Z,19
2023-03-17T14:10:05.513Z,18.9
2023-03-17T14:12:07.217Z,18.9
2023-03-17T14:14:09.878Z,18.7
2023-03-17T14:16:10.650Z,18.8
2023-03-17T14:18:12.398Z,19.1
2023-03-17T14:20:14.083Z,19
2023-03-17T14:22:18.943Z,19.1
2023-03-17T14:24:20.662Z,19.2
2023-03-17T14:26:22.370Z,19
2023-03-17T14:27:24.782Z,19
2023-03-17T14:29:26.514Z,18.8
2023-03-17T14:31:28.326Z,18.9
2023-03-17T14:33:29.952Z,18.6
2023-03-17T14:35:34.866Z,18.7
2023-03-17T14:37:36.534Z,18.6
2023-03-17T14:39:38.235Z,18.6
2023-03-17T14:41:39.970Z,18.5
2023-03-17T14:43:41.706Z,18.5
2023-03-17T14:45:43.520Z,18.5
2023-03-17T14:47:45.249Z,18.7
2023-03-17T14:49:50.094Z,18.8
2023-03-17T14:51:51.812Z,18.5
2023-03-17T14:53:53.520Z,18.4
2023-03-17T14:55:55.225Z,18.3
2023-03-17T14:57:56.960Z,18.2
2023-03-17T14:59:58.667Z,18.3
2023-03-17T15:02:00.459Z,18.2
2023-03-17T15:04:05.362Z,18
2023-03-17T15:06:07.067Z,18
2023-03-17T15:08:08.789Z,17.9
2023-03-17T15:10:10.543Z,17.9
2023-03-17T15:12:12.222Z,18.2
2023-03-17T15:14:13.927Z,17.8
2023-03-17T15:18:20.501Z,17.9
2023-03-17T15:20:22.234Z,17.8
2023-03-17T15:22:23.932Z,17.9
2023-03-17T15:23:26.363Z,18
2023-03-17T15:25:29.213Z,17.9
2023-03-17T15:27:29.811Z,17.9
2023-03-17T15:29:31.503Z,17.9
2023-03-17T15:31:36.577Z,17.7
2023-03-17T15:33:38.113Z,17.8
2023-03-17T15:35:41.377Z,17.7
2023-03-17T15:37:43.020Z,17.6
2023-03-17T15:39:44.731Z,17.8
2023-03-17T15:41:46.460Z,17.8
2023-03-17T15:43:48.164Z,17.7
2023-03-17T15:45:53.129Z,17.7
2023-03-17T15:47:54.767Z,17.9
2023-03-17T15:49:56.465Z,17.8
2023-03-17T15:51:58.195Z,17.7
2023-03-17T15:53:59.900Z,17.6
2023-03-17T15:56:01.632Z,17.4
2023-03-17T15:58:03.322Z,17.3
2023-03-17T16:00:08.297Z,16.9
2023-03-17T16:02:10.145Z,17
2023-03-17T16:04:12.034Z,16.8
2023-03-17T16:06:13.745Z,16.8
2023-03-17T16:08:15.457Z,16.7
2023-03-17T16:12:18.969Z,16.5
2023-03-17T16:14:23.771Z,16.5
2023-03-17T16:16:25.522Z,16.4
2023-03-17T16:18:27.203Z,16.6
2023-03-17T16:24:59.098Z,16.4
2023-03-17T16:27:04.157Z,16.3
2023-03-17T16:29:07.127Z,16.4
2023-03-17T16:31:07.752Z,16.2
2023-03-17T16:33:09.538Z,16.2
2023-03-17T16:47:25.459Z,16
2023-03-17T16:49:27.282Z,16
2023-03-17T16:51:29.104Z,15.9
2023-03-17T16:53:30.904Z,16
2023-03-17T16:55:35.953Z,15.8
2023-03-17T16:57:37.694Z,15.8
2023-03-17T16:59:39.506Z,15.8
2023-03-17T17:01:41.412Z,15.9
2023-03-17T17:05:45.106Z,15.7
2023-03-17T17:07:46.754Z,15.7
2023-03-17T17:09:51.796Z,15.7
2023-03-17T17:11:53.613Z,15.8
2023-03-17T17:13:55.436Z,15.7
2023-03-17T17:14:57.962Z,15.7
2023-03-17T17:16:59.748Z,15.6
2023-03-17T17:19:01.602Z,15.6
2023-03-17T17:21:03.389Z,15.6
2023-03-17T17:23:08.455Z,15.4
2023-03-17T17:25:10.264Z,15.4
2023-03-17T17:29:13.866Z,15.4
2023-03-17T17:31:15.772Z,15.3
2023-03-17T17:33:17.470Z,15.5
2023-03-17T17:35:19.249Z,15.3
2023-03-17T17:37:24.320Z,15.2
2023-03-17T17:39:26.124Z,15.2
2023-03-17T17:41:27.927Z,15.1
2023-03-17T17:43:29.805Z,15
2023-03-17T17:45:31.544Z,15.1
2023-03-17T17:47:33.353Z,15.1
2023-03-17T17:49:35.172Z,15.1
2023-03-17T17:51:40.244Z,14.9
2023-03-17T17:53:42.027Z,15.1
2023-03-17T17:55:43.826Z,15.1
2023-03-17T17:57:45.626Z,15.1
2023-03-17T17:59:47.441Z,15
2023-03-17T18:01:49.246Z,14.9
2023-03-17T18:03:51.066Z,14.9
2023-03-17T18:05:56.102Z,14.8
2023-03-17T18:07:57.890Z,14.9
2023-03-17T18:09:59.711Z,14.7
2023-03-17T18:21:14.554Z,14.7
2023-03-17T18:25:18.134Z,14.6
2023-03-17T18:27:19.949Z,14.5
2023-03-17T18:29:21.751Z,14.5
2023-03-17T18:31:23.638Z,14.5
2023-03-17T18:33:28.615Z,14.6
2023-03-17T18:35:30.448Z,14.7
2023-03-17T18:37:32.236Z,14.5
2023-03-17T18:43:37.667Z,14.5
2023-03-17T18:45:39.547Z,14.5
2023-03-17T18:47:44.521Z,14.5
2023-03-17T18:49:47.208Z,14.3
2023-03-17T18:51:48.120Z,14.5
2023-03-17T18:53:49.943Z,14.5
2023-03-17T18:55:51.729Z,14.4
2023-03-17T18:59:55.381Z,14.1
2023-03-17T19:02:00.407Z,14.3
2023-03-17T19:04:02.236Z,14.2
2023-03-17T19:07:06.542Z,14.1
2023-03-17T19:09:08.369Z,14.1
2023-03-17T19:11:10.170Z,14
2023-03-17T19:13:12.010Z,13.9
2023-03-17T19:15:17.043Z,13.9
2023-03-17T19:17:18.837Z,13.8
2023-03-17T19:19:20.630Z,13.9
2023-03-17T19:21:22.450Z,14.1
2023-03-17T19:23:24.257Z,13.9
2023-03-17T19:27:27.834Z,14
2023-03-17T19:29:32.904Z,13.8
2023-03-17T19:31:34.713Z,13.8
2023-03-17T19:33:36.502Z,13.9
2023-03-17T19:35:38.353Z,13.8
2023-03-17T19:37:40.117Z,13.9
2023-03-17T19:39:41.916Z,13.9
2023-03-17T19:41:43.911Z,13.8
2023-03-17T19:43:48.743Z,13.8
2023-03-17T19:45:50.559Z,13.8
2023-03-17T19:47:52.344Z,13.9
2023-03-17T19:49:54.122Z,13.8
2023-03-17T19:51:55.926Z,13.7
2023-03-17T19:53:57.716Z,13.8
2023-03-17T19:55:59.532Z,13.7
2023-03-17T19:58:04.596Z,13.7
2023-03-17T20:00:06.379Z,13.6
2023-03-17T20:02:08.156Z,13.8
2023-03-17T20:06:38.594Z,13.7
2023-03-17T20:12:47.224Z,13.7
2023-03-17T20:14:49.029Z,13.6
2023-03-17T20:16:50.863Z,13.6
2023-03-17T20:33:08.569Z,14.3
2023-03-17T20:35:10.308Z,14.4
2023-03-17T20:39:17.129Z,14.6
2023-03-17T20:41:18.917Z,14.6
2023-03-17T20:43:20.717Z,14.7
2023-03-17T20:51:27.939Z,14.9
2023-03-17T20:53:32.976Z,14.7
2023-03-17T20:55:34.790Z,14.8
2023-03-17T20:58:39.133Z,14.9
2023-03-17T21:00:40.935Z,14.8
2023-03-17T21:02:42.798Z,14.8
2023-03-17T21:06:49.559Z,14.9
2023-03-17T21:08:51.386Z,14.8
2023-03-17T21:14:56.794Z,14.9
2023-03-17T21:16:58.567Z,14.7
2023-03-17T21:19:00.389Z,14.8
2023-03-17T21:23:07.221Z,14.9
2023-03-17T21:25:09.053Z,14.9
2023-03-17T21:33:17.736Z,14.8
2023-03-17T21:37:24.591Z,14.7
2023-03-17T21:54:44.771Z,14.7
2023-03-17T21:56:46.622Z,14.7
2023-03-17T21:58:48.397Z,14.6
2023-03-17T22:00:50.512Z,14.6
2023-03-17T22:02:55.266Z,14.7
2023-03-17T22:04:57.013Z,14.9
2023-03-17T22:31:26.974Z,14.5
2023-03-17T22:43:37.773Z,14.5
2023-03-17T22:50:48.957Z,14.2
2023-03-17T22:52:50.782Z,14.3
2023-03-17T22:54:52.548Z,14.4
2023-03-17T22:56:54.387Z,14.1
2023-03-17T22:58:59.416Z,14.1
2023-03-17T23:01:01.379Z,14.3
2023-03-17T23:03:03.034Z,14.2
2023-03-17T23:05:04.860Z,14.2
2023-03-17T23:07:06.626Z,14.3
2023-03-17T23:09:08.450Z,14.2
2023-03-17T23:11:10.217Z,14.3
2023-03-17T23:15:17.118Z,14.4
2023-03-17T23:17:18.911Z,14.2
2023-03-17T23:19:20.685Z,14.2
2023-03-17T23:21:22.475Z,14.1
2023-03-17T23:23:24.287Z,14.2
2023-03-17T23:27:31.124Z,14
2023-03-17T23:29:32.912Z,14.1
2023-03-17T23:31:34.728Z,14.1
2023-03-17T23:33:36.544Z,14
2023-03-17T23:35:38.362Z,14
2023-03-17T23:37:40.129Z,14.1
2023-03-17T23:39:41.920Z,13.9
2023-03-17T23:41:46.978Z,14
2023-03-17T23:43:48.766Z,14
2023-03-17T23:48:19.174Z,13.9
2023-03-17T23:50:20.979Z,13.8
2023-03-17T23:52:22.804Z,13.8
2023-03-17T23:54:27.829Z,13.8
2023-03-17T23:56:29.632Z,13.9
2023-03-17T23:58:31.449Z,13.8
